^^
Grace C. Lehan Memorial Weather Station Historical Data
Daily Summary for February 9, 2021 Units:  Metric    English   Both
Daily Weekly Monthly Yearly
  High: Low: Average:
Temperature: 3.3 °C -4.3 °C -0.3 °C
Dew Point: -4.8 °C -8.8 °C -7.2 °C
Humidity: 72% 51.3% 60%
Wind Speed: 11.3km/h 0km/h 3.5km/h
Wind Gust: 29km/h - -
Wind- - WNW
Pressure: 1014.1 hPa 1009 hPa -
Precipitation: 0 mm    
 
 
Tabular Data for February 9, 2021
Time Temperature Dew Point Pressure Wind Wind Speed Wind Gust Humidity Rainfall Rate (Hourly) solar
00:04 -2.4 °C -7.9 °C 1010.4 hPa Calm   3.2 km/h 66% 0 mm 0 W/m2
00:09 -2.4 °C -7.8 °C 1010.4 hPa Calm     66.5% 0 mm 0 W/m2
00:14 -2.5 °C -7.8 °C 1010.4 hPa Calm     67% 0 mm 0 W/m2
00:19 -2.6 °C -7.8 °C 1010.4 hPa Calm     67.1% 0 mm 0 W/m2
00:24 -2.7 °C -7.7 °C 1010.4 hPa Calm     68% 0 mm 0 W/m2
00:29 -2.7 °C -7.8 °C 1010.4 hPa Calm     68% 0 mm 0 W/m2
00:34 -2.8 °C -7.8 °C 1010.4 hPa Calm     68% 0 mm 0 W/m2
00:39 -2.8 °C -7.9 °C 1010.4 hPa Calm     68% 0 mm 0 W/m2
00:44 -2.8 °C -7.8 °C 1010.4 hPa Calm     68.9% 0 mm 0 W/m2
00:49 -2.9 °C -7.8 °C 1010.4 hPa Calm     69.1% 0 mm 0 W/m2
00:54 -2.9 °C -7.7 °C 1010.4 hPa NW 0.2 km/h 4.8 km/h 70% 0 mm 0 W/m2
00:59 -3 °C -7.7 °C 1010.4 hPa NW 0.6 km/h 4.8 km/h 70% 0 mm 0 W/m2
01:04 -3.1 °C -7.7 °C 1010.4 hPa NW 0.2 km/h 4.8 km/h 70% 0 mm 0 W/m2
01:09 -3.1 °C -7.8 °C 1010 hPa Calm   3.2 km/h 70% 0 mm 0 W/m2
01:14 -3.1 °C -7.8 °C 1010 hPa NW 0.6 km/h 4.8 km/h 70% 0 mm 0 W/m2
01:19 -3.1 °C -7.8 °C 1010 hPa NNW 3.2 km/h 11.3 km/h 70% 0 mm 0 W/m2
01:24 -3.1 °C -7.7 °C 1010 hPa North 0.8 km/h 11.3 km/h 70% 0 mm 0 W/m2
01:29 -3.1 °C -7.9 °C 1010 hPa NNW 2.4 km/h 11.3 km/h 69.3% 0 mm 0 W/m2
01:34 -3.1 °C -7.7 °C 1010 hPa NNW 0.3 km/h 11.3 km/h 70% 0 mm 0 W/m2
01:39 -3.1 °C -7.8 °C 1010 hPa NNW 1.9 km/h 6.4 km/h 69.7% 0 mm 0 W/m2
01:44 -3.1 °C -7.9 °C 1010 hPa NNW 2.6 km/h 11.3 km/h 69% 0 mm 0 W/m2
01:49 -3.1 °C -7.9 °C 1010 hPa NNW 2.1 km/h 11.3 km/h 69% 0 mm 0 W/m2
01:54 -3.1 °C -7.9 °C 1010 hPa NNW 2.3 km/h 11.3 km/h 69% 0 mm 0 W/m2
01:59 -3.1 °C -7.9 °C 1010 hPa NNW 3.7 km/h 11.3 km/h 69% 0 mm 0 W/m2
02:04 -3 °C -7.9 °C 1010 hPa NNW 3.5 km/h 16.1 km/h 69% 0 mm 0 W/m2
02:09 -2.9 °C -7.9 °C 1010 hPa NNW 4.3 km/h 16.1 km/h 68.3% 0 mm 0 W/m2
02:14 -2.8 °C -7.9 °C 1010 hPa NNW 4 km/h 16.1 km/h 68% 0 mm 0 W/m2
02:19 -2.8 °C -7.9 °C 1010.4 hPa North 3.9 km/h 17.7 km/h 68% 0 mm 0 W/m2
02:24 -2.8 °C -7.8 °C 1010.4 hPa North 5.6 km/h 17.7 km/h 68% 0 mm 0 W/m2
02:29 -2.7 °C -7.8 °C 1010.4 hPa NNW 4.7 km/h 17.7 km/h 67.9% 0 mm 0 W/m2
02:34 -2.7 °C -8 °C 1010.4 hPa NNW 4.2 km/h 17.7 km/h 67% 0 mm 0 W/m2
02:39 -2.7 °C -8 °C 1010.4 hPa NW 2.9 km/h 14.5 km/h 67% 0 mm 0 W/m2
02:44 -2.7 °C -8 °C 1010.4 hPa NNW 2.7 km/h 14.5 km/h 67% 0 mm 0 W/m2
02:49 -2.7 °C -8 °C 1010 hPa NNW 5.6 km/h 14.5 km/h 67% 0 mm 0 W/m2
02:54 -2.8 °C -8.1 °C 1010.4 hPa NNW 4 km/h 14.5 km/h 67% 0 mm 0 W/m2
02:59 -2.8 °C -8 °C 1010 hPa North 2.3 km/h 14.5 km/h 67.3% 0 mm 0 W/m2
03:04 -2.8 °C -7.9 °C 1010.4 hPa NNW 3.7 km/h 14.5 km/h 68% 0 mm 0 W/m2
03:09 -2.9 °C -7.9 °C 1010.4 hPa NNW 1.4 km/h 8 km/h 68% 0 mm 0 W/m2
03:14 -2.9 °C -8 °C 1010.4 hPa NNW 2.6 km/h 9.7 km/h 68% 0 mm 0 W/m2
03:19 -2.9 °C -8 °C 1010.4 hPa NNW 1.8 km/h 9.7 km/h 68% 0 mm 0 W/m2
03:24 -3 °C -8.1 °C 1010.4 hPa NW 1.3 km/h 11.3 km/h 68% 0 mm 0 W/m2
03:29 -3 °C -8.1 °C 1010 hPa NW 2.4 km/h 11.3 km/h 68% 0 mm 0 W/m2
03:34 -3.1 °C -8.1 °C 1010.4 hPa NW 3.2 km/h 11.3 km/h 68% 0 mm 0 W/m2
03:39 -3.1 °C -8.1 °C 1010 hPa NW 0.8 km/h 11.3 km/h 68% 0 mm 0 W/m2
03:44 -3.1 °C -8.2 °C 1010 hPa NW 0.5 km/h 11.3 km/h 68% 0 mm 0 W/m2
03:49 -3.1 °C -8.2 °C 1010 hPa NW 0.2 km/h 11.3 km/h 68% 0 mm 0 W/m2
03:54 -3.2 °C -8.2 °C 1010 hPa NW 0.2 km/h 11.3 km/h 68% 0 mm 0 W/m2
03:59 -3.2 °C -8.3 °C 1010 hPa Calm   11.3 km/h 68% 0 mm 0 W/m2
04:04 -3.3 °C -8.2 °C 1010 hPa Calm   11.3 km/h 68.8% 0 mm 0 W/m2
04:09 -3.3 °C -8.2 °C 1010.4 hPa Calm     69% 0 mm 0 W/m2
04:14 -3.4 °C -8.2 °C 1010.4 hPa Calm     69% 0 mm 0 W/m2
04:19 -3.4 °C -8.3 °C 1010.4 hPa Calm     69% 0 mm 0 W/m2
04:24 -3.5 °C -8.4 °C 1010.4 hPa Calm     69% 0 mm 0 W/m2
04:29 -3.6 °C -8.3 °C 1010.4 hPa Calm     69.9% 0 mm 0 W/m2
04:34 -3.7 °C -8.3 °C 1010 hPa Calm     70% 0 mm 0 W/m2
04:39 -3.8 °C -8.3 °C 1010 hPa Calm     70.8% 0 mm 0 W/m2
04:41 -3.8 °C -8.3 °C 1010 hPa Calm     71% 0 mm 0 W/m2
05:00 -4 °C -8.3 °C 1009.7 hPa Calm     72% 0 mm 0 W/m2
05:30 -4.1 °C -8.4 °C 1009.7 hPa Calm   8 km/h 72% 0 mm 0 W/m2
06:00 -4.1 °C -8.4 °C 1010 hPa NW 1.6 km/h 11.3 km/h 72% 0 mm 0 W/m2
06:30 -4.1 °C -8.6 °C 1010 hPa NNW 3.2 km/h 16.1 km/h 71% 0 mm 0 W/m2
07:30 -4.3 °C -8.8 °C 1010.7 hPa NW 4.8 km/h 14.5 km/h 71% 0 mm 2 W/m2
08:04 -3.7 °C -8.2 °C 1010.7 hPa North 3.2 km/h 14.5 km/h 71.3% 0 mm 72 W/m2
08:09 -3.4 °C -7.9 °C 1010.7 hPa North 2.4 km/h 16.1 km/h 71% 0 mm 72 W/m2
08:14 -3.1 °C -7.9 °C 1011.1 hPa NNW 3.7 km/h 16.1 km/h 69.5% 0 mm 91 W/m2
08:19 -2.8 °C -7.8 °C 1011.1 hPa NNW 6.3 km/h 17.7 km/h 68.4% 0 mm 93 W/m2
08:24 -2.6 °C -7.8 °C 1011.1 hPa North 3.1 km/h 17.7 km/h 67.3% 0 mm 105 W/m2
08:29 -2.4 °C -7.7 °C 1011.1 hPa NNW 6.9 km/h 25.7 km/h 66.6% 0 mm 111 W/m2
08:34 -2.2 °C -7.9 °C 1011.1 hPa North 6.9 km/h 25.7 km/h 65.2% 0 mm 81 W/m2
08:39 -2.2 °C -7.9 °C 1011.4 hPa North 4.8 km/h 20.9 km/h 65% 0 mm 88 W/m2
08:44 -2.1 °C -7.9 °C 1011.4 hPa North 8 km/h 20.9 km/h 64.3% 0 mm 123 W/m2
08:49 -2.2 °C -8.2 °C 1011.4 hPa North 8 km/h 24.1 km/h 63.4% 0 mm 100 W/m2
08:54 -2.1 °C -8.1 °C 1011.4 hPa NNE 8 km/h 24.1 km/h 63.7% 0 mm 148 W/m2
08:59 -2 °C -8.1 °C 1011.4 hPa NNW 9.3 km/h 24.1 km/h 63% 0 mm 111 W/m2
09:04 -2 °C -8.1 °C 1011.4 hPa NNW 10.1 km/h 24.1 km/h 63% 0 mm 113 W/m2
09:09 -1.9 °C -8 °C 1011.4 hPa North 7.4 km/h 29 km/h 63% 0 mm 120 W/m2
09:14 -1.8 °C -7.9 °C 1011.4 hPa North 8.2 km/h 29 km/h 63% 0 mm 116 W/m2
09:19 -1.7 °C -7.8 °C 1011.4 hPa North 7.6 km/h 29 km/h 62.6% 0 mm 127 W/m2
09:24 -1.6 °C -7.8 °C 1011.1 hPa NNW 9.2 km/h 29 km/h 62% 0 mm 165 W/m2
09:29 -1.4 °C -7.8 °C 1011.1 hPa NNW 10.5 km/h 29 km/h 62% 0 mm 70 W/m2
09:34 -1.4 °C -7.8 °C 1011.1 hPa North 8.5 km/h 29 km/h 61.6% 0 mm 165 W/m2
09:39 -1.3 °C -7.7 °C 1011.1 hPa North 7.9 km/h 24.1 km/h 61.8% 0 mm 193 W/m2
09:44 -1.2 °C -7.7 °C 1011.1 hPa NNW 7.4 km/h 24.1 km/h 61.1% 0 mm 135 W/m2
09:49 -1.1 °C -7.7 °C 1011.1 hPa NNW 11.1 km/h 25.7 km/h 61% 0 mm 105 W/m2
09:54 -1.2 °C -7.7 °C 1011.4 hPa North 6.4 km/h 25.7 km/h 61% 0 mm 142 W/m2
09:59 -1.2 °C -7.8 °C 1011.4 hPa NNW 8.5 km/h 25.7 km/h 61% 0 mm 118 W/m2
10:04 -1.2 °C -7.7 °C 1011.4 hPa NNW 4.8 km/h 25.7 km/h 61.2% 0 mm 70 W/m2
10:09 -1.1 °C -7.4 °C 1011.1 hPa NNW 6.1 km/h 17.7 km/h 62% 0 mm 111 W/m2
10:14 -0.9 °C -7.4 °C 1011.1 hPa NNE 5.1 km/h 20.9 km/h 61.5% 0 mm 171 W/m2
10:19 -0.7 °C -7.2 °C 1011.1 hPa NNE 4.3 km/h 20.9 km/h 61.2% 0 mm 220 W/m2
10:24 -0.3 °C -7.1 °C 1011.1 hPa North 5 km/h 20.9 km/h 60.3% 0 mm 345 W/m2
10:29 0.1 °C -6.8 °C 1010.7 hPa NNW 8.4 km/h 20.9 km/h 59.7% 0 mm 381 W/m2
10:34 0.6 °C -6.6 °C 1010.7 hPa North 6.9 km/h 22.5 km/h 58.8% 0 mm 373 W/m2
10:39 1.1 °C -6.3 °C 1010.7 hPa NNW 10 km/h 22.5 km/h 57.8% 0 mm 436 W/m2
10:44 1.6 °C -5.9 °C 1010.7 hPa North 5.5 km/h 22.5 km/h 57.4% 0 mm 429 W/m2
10:49 2.2 °C -5.8 °C 1010.7 hPa North 5.1 km/h 22.5 km/h 55.5% 0 mm 464 W/m2
10:54 2.4 °C -5.9 °C 1010.7 hPa NNW 8 km/h 22.5 km/h 54.3% 0 mm 471 W/m2
10:59 2.6 °C -5.8 °C 1010.4 hPa NNW 6 km/h 22.5 km/h 53.8% 0 mm 455 W/m2
11:04 2.8 °C -5.7 °C 1010.4 hPa NNE 2.3 km/h 22.5 km/h 53.6% 0 mm 417 W/m2
11:09 2.8 °C -5.8 °C 1010.4 hPa NNE 3.7 km/h 17.7 km/h 53% 0 mm 332 W/m2
11:14 2.7 °C -6 °C 1010 hPa North 6.4 km/h 17.7 km/h 52.8% 0 mm 313 W/m2
11:19 2.7 °C -5.7 °C 1010 hPa NNE 5.1 km/h 17.7 km/h 53.7% 0 mm 374 W/m2
11:24 2.8 °C -5.9 °C 1010 hPa NNE 5.6 km/h 17.7 km/h 52.7% 0 mm 327 W/m2
11:29 2.8 °C -5.8 °C 1009.7 hPa NNW 7.9 km/h 17.7 km/h 53.2% 0 mm 188 W/m2
11:34 2.6 °C -6.2 °C 1009.7 hPa NNW 10.5 km/h 29 km/h 52.5% 0 mm 137 W/m2
11:39 2.3 °C -6.2 °C 1009.7 hPa NNW 11.3 km/h 29 km/h 53.2% 0 mm 176 W/m2
11:44 2.1 °C -6.3 °C 1009.7 hPa North 6 km/h 29 km/h 53.7% 0 mm 192 W/m2
11:49 2.1 °C -6 °C 1009.4 hPa North 2.9 km/h 29 km/h 54.9% 0 mm 246 W/m2
11:54 2.3 °C -5.8 °C 1009.4 hPa North 6.3 km/h 29 km/h 55.1% 0 mm 163 W/m2
11:59 2.4 °C -5.8 °C 1009.7 hPa NNW 7.7 km/h 29 km/h 54.4% 0 mm 163 W/m2
12:04 2.4 °C -5.7 °C 1009.4 hPa NW 6.4 km/h 6.4 km/h 55% 0 mm 134 W/m2
12:09 2.4 °C -5.7 °C 1009.7 hPa NNW 6.1 km/h 20.9 km/h 55% 0 mm 422 W/m2
12:14 2.4 °C -5.8 °C 1009.4 hPa North 4.3 km/h 20.9 km/h 54.5% 0 mm 366 W/m2
12:19 2.4 °C -5.7 °C 1009.4 hPa NNW 4 km/h 20.9 km/h 55.1% 0 mm 461 W/m2
12:24 2.5 °C -5.6 °C 1009.4 hPa NNE 3.7 km/h 20.9 km/h 55% 0 mm 494 W/m2
12:29 2.7 °C -5.6 °C 1009 hPa NE 2.4 km/h 20.9 km/h 54.3% 0 mm 494 W/m2
12:34 2.7 °C -5.7 °C 1009 hPa NNE 4 km/h 20.9 km/h 54% 0 mm 346 W/m2
12:39 2.7 °C -5.5 °C 1009 hPa NNE 3.1 km/h 14.5 km/h 54.8% 0 mm 327 W/m2
12:44 2.7 °C -5.4 °C 1009 hPa NNE 2.7 km/h 14.5 km/h 55.2% 0 mm 434 W/m2
12:49 2.8 °C -5.3 °C 1009 hPa North 5.8 km/h 19.3 km/h 55% 0 mm 424 W/m2
12:54 3.1 °C -5.1 °C 1009 hPa NNW 6.8 km/h 19.3 km/h 54.9% 0 mm 322 W/m2
12:59 3.2 °C -5.2 °C 1009 hPa NNW 4.5 km/h 19.3 km/h 53.8% 0 mm 232 W/m2
13:04 3.2 °C -5.2 °C 1009 hPa North 3.5 km/h 19.3 km/h 54% 0 mm 232 W/m2
13:09 3.3 °C -5.1 °C 1009 hPa NNW 2.9 km/h 11.3 km/h 54.3% 0 mm 227 W/m2
13:14 3.3 °C -5.1 °C 1009 hPa NNW 3.9 km/h 17.7 km/h 54% 0 mm 218 W/m2
13:19 3.3 °C -5.2 °C 1009 hPa NNW 4.8 km/h 17.7 km/h 54% 0 mm 200 W/m2
13:24 3.2 °C -5.3 °C 1009 hPa NW 6.3 km/h 17.7 km/h 54% 0 mm 163 W/m2
13:29 3 °C -4.9 °C 1009 hPa NW 4 km/h 19.3 km/h 56% 0 mm 167 W/m2
13:34 2.9 °C -5.1 °C 1009 hPa NNW 3.9 km/h 19.3 km/h 55.6% 0 mm 169 W/m2
13:37 2.9 °C -5.1 °C 1009 hPa NW 4.7 km/h 17.7 km/h 55.3% 0 mm 153 W/m2
14:00 2.7 °C -4.9 °C 1009 hPa NNW 3.2 km/h 20.9 km/h 57% 0 mm 133 W/m2
14:30 2.8 °C -4.8 °C 1009 hPa NNW 1.6 km/h 16.1 km/h 57% 0 mm 123 W/m2
15:00 2.6 °C -5.3 °C 1009.4 hPa WNW 3.2 km/h 14.5 km/h 56% 0 mm 86 W/m2
15:30 2.2 °C -5.7 °C 1009.4 hPa WNW 4.8 km/h 19.3 km/h 56% 0 mm 45 W/m2
16:04 1.8 °C -5.8 °C 1009.7 hPa WNW 6.8 km/h 19.3 km/h 56.9% 0 mm 45 W/m2
16:09 1.7 °C -5.9 °C 1009.7 hPa WNW 5.6 km/h 17.7 km/h 57% 0 mm 9 W/m2
16:14 1.7 °C -5.8 °C 1009.7 hPa NW 6 km/h 24.1 km/h 57.6% 0 mm 7 W/m2
16:19 1.7 °C -5.7 °C 1009.7 hPa NW 3.5 km/h 24.1 km/h 58% 0 mm 5 W/m2
16:24 1.7 °C -5.7 °C 1010 hPa NW 2.9 km/h 24.1 km/h 58% 0 mm 0 W/m2
16:29 1.7 °C -5.7 °C 1010 hPa NW 3.2 km/h 24.1 km/h 58% 0 mm 0 W/m2
16:34 1.7 °C -5.7 °C 1010 hPa NW 3.2 km/h 24.1 km/h 58% 0 mm 0 W/m2
16:39 1.7 °C -5.7 °C 1010 hPa NW 2.9 km/h 16.1 km/h 58% 0 mm 0 W/m2
16:44 1.7 °C -5.7 °C 1010 hPa NW 3.1 km/h 16.1 km/h 58% 0 mm 0 W/m2
16:49 1.7 °C -5.7 °C 1010 hPa NW 3.9 km/h 17.7 km/h 58% 0 mm 0 W/m2
16:54 1.7 °C -5.7 °C 1010.4 hPa NW 3.1 km/h 17.7 km/h 58% 0 mm 0 W/m2
16:59 1.7 °C -5.7 °C 1010.4 hPa NW 2.9 km/h 17.7 km/h 58% 0 mm 0 W/m2
17:04 1.6 °C -5.7 °C 1010 hPa NW 4.5 km/h 19.3 km/h 58% 0 mm 0 W/m2
17:09 1.6 °C -5.8 °C 1010.4 hPa NW 6.8 km/h 19.3 km/h 58% 0 mm 0 W/m2
17:14 1.6 °C -5.8 °C 1010.4 hPa NNW 3.7 km/h 19.3 km/h 58% 0 mm 0 W/m2
17:19 1.6 °C -5.8 °C 1010.4 hPa NW 3.4 km/h 19.3 km/h 58% 0 mm 0 W/m2
17:20 1.6 °C -5.8 °C 1010.4 hPa NW 8.2 km/h 19.3 km/h 58% 0 mm 0 W/m2
17:30 1.6 °C -5.8 °C 1010.7 hPa NW 3.2 km/h 19.3 km/h 58% 0 mm 0 W/m2
18:00 1.4 °C -6.1 °C 1010.7 hPa NNW 1.6 km/h 14.5 km/h 57% 0 mm 0 W/m2
18:39 1.4 °C -7.1 °C 1011.4 hPa NW 4.7 km/h 16.1 km/h 53.1% 0 mm 0 W/m2
18:44 1.5 °C -7.2 °C 1011.4 hPa NNW 3.9 km/h 16.1 km/h 52.3% 0 mm 0 W/m2
18:49 1.5 °C -7.3 °C 1011.4 hPa NNW 3.7 km/h 16.1 km/h 52% 0 mm 0 W/m2
18:54 1.5 °C -7.3 °C 1011.7 hPa NNW 3.4 km/h 16.1 km/h 52% 0 mm 0 W/m2
18:59 1.4 °C -7.3 °C 1011.7 hPa NW 4.8 km/h 16.1 km/h 52% 0 mm 0 W/m2
19:04 1.4 °C -7.4 °C 1011.7 hPa NNW 2.3 km/h 16.1 km/h 52% 0 mm 0 W/m2
19:09 1.4 °C -7.3 °C 1012.1 hPa NNW 0.8 km/h 9.7 km/h 52.5% 0 mm 0 W/m2
19:14 1.3 °C -7.3 °C 1012.1 hPa NNW 3.1 km/h 11.3 km/h 52.7% 0 mm 0 W/m2
19:19 1.3 °C -7.3 °C 1012.1 hPa North 1.6 km/h 11.3 km/h 52.5% 0 mm 0 W/m2
19:24 1.3 °C -7.2 °C 1012.1 hPa North 2.7 km/h 17.7 km/h 52.8% 0 mm 0 W/m2
19:29 1.3 °C -7.2 °C 1012.1 hPa NNW 2.1 km/h 17.7 km/h 52.8% 0 mm 0 W/m2
19:34 1.4 °C -7.1 °C 1012.1 hPa NNW 1.9 km/h 17.7 km/h 53% 0 mm 0 W/m2
19:39 1.4 °C -7.3 °C 1012.1 hPa NNW 3.5 km/h 14.5 km/h 52.1% 0 mm 0 W/m2
19:44 1.4 °C -7.3 °C 1012.1 hPa NNW 3.9 km/h 14.5 km/h 52% 0 mm 0 W/m2
19:49 1.4 °C -7.3 °C 1012.1 hPa NNW 3.4 km/h 14.5 km/h 52% 0 mm 0 W/m2
19:54 1.4 °C -7.3 °C 1012.1 hPa NNW 3.4 km/h 14.5 km/h 52% 0 mm 0 W/m2
19:58 1.4 °C -7.4 °C 1012.1 hPa NNW 3.5 km/h 17.7 km/h 52% 0 mm 0 W/m2
20:04 1.3 °C -7.4 °C 1012.1 hPa NNW 7.7 km/h 19.3 km/h 52% 0 mm 0 W/m2
20:09 1.3 °C -7.6 °C 1012.1 hPa NNW 3.9 km/h 19.3 km/h 51.4% 0 mm 0 W/m2
20:14 1.2 °C -7.6 °C 1012.4 hPa NNW 3.9 km/h 19.3 km/h 52% 0 mm 0 W/m2
20:19 1.2 °C -7.8 °C 1012.4 hPa NW 3.7 km/h 19.3 km/h 51.3% 0 mm 0 W/m2
20:24 1.1 °C -7.7 °C 1012.4 hPa NNW 1.4 km/h 19.3 km/h 51.7% 0 mm 0 W/m2
20:29 1.1 °C -7.7 °C 1012.4 hPa NW 3.2 km/h 19.3 km/h 52% 0 mm 0 W/m2
20:34 0.9 °C -7.8 °C 1012.4 hPa NW 2.3 km/h 19.3 km/h 52% 0 mm 0 W/m2
20:39 0.9 °C -7.8 °C 1012.4 hPa NNW 3.9 km/h 14.5 km/h 52% 0 mm 0 W/m2
20:44 0.8 °C -7.9 °C 1012.4 hPa NNW 2.1 km/h 14.5 km/h 52% 0 mm 0 W/m2
20:49 0.8 °C -7.9 °C 1012.4 hPa North 2.6 km/h 14.5 km/h 52% 0 mm 0 W/m2
20:54 0.7 °C -8.1 °C 1012.4 hPa NNW 3.7 km/h 14.5 km/h 51.8% 0 mm 0 W/m2
20:59 0.7 °C -8.1 °C 1012.8 hPa NNW 4.7 km/h 16.1 km/h 52% 0 mm 0 W/m2
21:04 0.6 °C -8.1 °C 1012.8 hPa North 2.4 km/h 16.1 km/h 52% 0 mm 0 W/m2
21:09 0.6 °C -8.2 °C 1012.8 hPa NNW 2.4 km/h 14.5 km/h 52% 0 mm 0 W/m2
21:14 0.5 °C -8.2 °C 1012.8 hPa NW 4.3 km/h 16.1 km/h 52% 0 mm 0 W/m2
21:19 0.5 °C -8.2 °C 1012.8 hPa NNW 1.9 km/h 16.1 km/h 52% 0 mm 0 W/m2
21:24 0.4 °C -8 °C 1012.8 hPa NNW 3.5 km/h 17.7 km/h 52.9% 0 mm 0 W/m2
21:29 0.4 °C -7.9 °C 1012.8 hPa NNW 5.5 km/h 17.7 km/h 53.4% 0 mm 0 W/m2
21:34 0.4 °C -7.8 °C 1012.8 hPa NNW 5.6 km/h 17.7 km/h 54% 0 mm 0 W/m2
21:39 0.4 °C -7.6 °C 1013.1 hPa North 3.1 km/h 17.7 km/h 55% 0 mm 0 W/m2
21:44 0.3 °C -7.6 °C 1013.1 hPa NNW 6.8 km/h 19.3 km/h 55% 0 mm 0 W/m2
21:49 0.3 °C -7.4 °C 1013.1 hPa NNW 4.8 km/h 19.3 km/h 56% 0 mm 0 W/m2
21:54 0.3 °C -7.4 °C 1013.1 hPa NNW 3.9 km/h 19.3 km/h 56% 0 mm 0 W/m2
21:59 0.3 °C -7.4 °C 1013.1 hPa NNW 3.1 km/h 19.3 km/h 56.1% 0 mm 0 W/m2
22:04 0.3 °C -7.2 °C 1013.1 hPa NNW 3.7 km/h 19.3 km/h 57% 0 mm 0 W/m2
22:09 0.3 °C -7.2 °C 1013.1 hPa NW 3.4 km/h 16.1 km/h 57% 0 mm 0 W/m2
22:14 0.2 °C -7.3 °C 1013.1 hPa NNW 5 km/h 17.7 km/h 57.2% 0 mm 0 W/m2
22:19 0.2 °C -7.3 °C 1013.1 hPa North 4 km/h 17.7 km/h 57.1% 0 mm 0 W/m2
22:24 0.2 °C -7.1 °C 1013.4 hPa NNW 4.2 km/h 17.7 km/h 58% 0 mm 0 W/m2
22:29 0.2 °C -7.1 °C 1013.4 hPa North 0.8 km/h 17.7 km/h 58% 0 mm 0 W/m2
22:34 0.2 °C -7.1 °C 1013.4 hPa North 1.6 km/h 17.7 km/h 58% 0 mm 0 W/m2
22:39 0.2 °C -7.1 °C 1013.4 hPa NNW 2.9 km/h 11.3 km/h 58% 0 mm 0 W/m2
22:44 0.1 °C -7.2 °C 1013.4 hPa NNW 2.1 km/h 11.3 km/h 58% 0 mm 0 W/m2
22:49 0.1 °C -7.1 °C 1013.8 hPa NNW 1.9 km/h 11.3 km/h 58.5% 0 mm 0 W/m2
22:54 0.1 °C -7.1 °C 1013.8 hPa NNW 2.1 km/h 11.3 km/h 58.7% 0 mm 0 W/m2
22:59 0 °C -7.1 °C 1013.8 hPa NNW 1.9 km/h 11.3 km/h 59% 0 mm 0 W/m2
23:04 -0.1 °C -7.1 °C 1013.8 hPa North 4.3 km/h 6.4 km/h 59% 0 mm 0 W/m2
23:09 -0.1 °C -7.1 °C 1013.8 hPa NNW 2.3 km/h 14.5 km/h 59% 0 mm 0 W/m2
23:14 -0.1 °C -7.2 °C 1013.8 hPa North 1 km/h 14.5 km/h 59% 0 mm 0 W/m2
23:19 -0.1 °C -7.2 °C 1013.8 hPa NNW 1.8 km/h 14.5 km/h 59% 0 mm 0 W/m2
23:24 -0.1 °C -7.2 °C 1013.8 hPa NNW 0.5 km/h 14.5 km/h 59% 0 mm 0 W/m2
23:29 -0.2 °C -7.2 °C 1013.8 hPa Calm   14.5 km/h 59% 0 mm 0 W/m2
23:34 -0.2 °C -7.2 °C 1013.8 hPa NNW 0.6 km/h 14.5 km/h 59% 0 mm 0 W/m2
23:39 -0.2 °C -7.2 °C 1014.1 hPa Calm   4.8 km/h 59% 0 mm 0 W/m2
23:44 -0.2 °C -7.2 °C 1014.1 hPa Calm   4.8 km/h 59.2% 0 mm 0 W/m2
23:49 -0.3 °C -7.1 °C 1014.1 hPa NNW 0.2 km/h 4.8 km/h 59.7% 0 mm 0 W/m2
23:54 -0.3 °C -7.1 °C 1014.1 hPa NNW 0.6 km/h 4.8 km/h 60% 0 mm 0 W/m2
23:59 -0.3 °C -7.1 °C 1014.1 hPa NNW 0.6 km/h 8 km/h 60% 0 mm 0 W/m2
Hartford County Weather
Compliments of Weather Underground - 4 mb